sensor_id;sensor_type;location;lat;lon;timestamp;pressure;altitude;pressure_sealevel;temperature;humidity
39197;BME280;42889;51.112;13.772;2022-09-23T00:01:01;99693.09;;;4.66;100.00
39197;BME280;42889;51.112;13.772;2022-09-23T00:03:29;99698.31;;;4.68;100.00
39197;BME280;42889;51.112;13.772;2022-09-23T00:06:18;99685.41;;;4.49;100.00
39197;BME280;42889;51.112;13.772;2022-09-23T00:08:56;99690.09;;;4.33;100.00
39197;BME280;42889;51.112;13.772;2022-09-23T00:11:26;99686.81;;;4.55;100.00
39197;BME280;42889;51.112;13.772;2022-09-23T00:13:55;99686.28;;;4.62;100.00
39197;BME280;42889;51.112;13.772;2022-09-23T00:16:50;99688.59;;;4.67;100.00
39197;BME280;42889;51.112;13.772;2022-09-23T00:19:43;99683.94;;;4.58;100.00
39197;BME280;42889;51.112;13.772;2022-09-23T00:22:10;99680.50;;;4.68;100.00
39197;BME280;42889;51.112;13.772;2022-09-23T00:27:41;99675.47;;;4.76;100.00
39197;BME280;42889;51.112;13.772;2022-09-23T00:30:12;99667.13;;;4.94;100.00
39197;BME280;42889;51.112;13.772;2022-09-23T00:32:39;99663.50;;;4.95;100.00
39197;BME280;42889;51.112;13.772;2022-09-23T00:35:06;99671.53;;;4.95;100.00
39197;BME280;42889;51.112;13.772;2022-09-23T00:37:34;99674.09;;;4.84;100.00
39197;BME280;42889;51.112;13.772;2022-09-23T00:40:01;99665.06;;;4.73;100.00
39197;BME280;42889;51.112;13.772;2022-09-23T00:42:29;99665.06;;;4.73;100.00
39197;BME280;42889;51.112;13.772;2022-09-23T00:44:58;99661.84;;;4.56;100.00
39197;BME280;42889;51.112;13.772;2022-09-23T00:50:53;99669.13;;;4.41;100.00
39197;BME280;42889;51.112;13.772;2022-09-23T00:53:22;99666.31;;;4.55;100.00
39197;BME280;42889;51.112;13.772;2022-09-23T00:55:55;99664.72;;;4.65;100.00
39197;BME280;42889;51.112;13.772;2022-09-23T00:59:25;99659.72;;;4.48;100.00
39197;BME280;42889;51.112;13.772;2022-09-23T01:02:10;99661.22;;;4.39;100.00
39197;BME280;42889;51.112;13.772;2022-09-23T01:05:55;99648.44;;;4.19;100.00
39197;BME280;42889;51.112;13.772;2022-09-23T01:08:26;99657.41;;;4.31;100.00
39197;BME280;42889;51.112;13.772;2022-09-23T01:16:03;99653.75;;;4.44;100.00
39197;BME280;42889;51.112;13.772;2022-09-23T01:19:45;99650.44;;;4.54;100.00
39197;BME280;42889;51.112;13.772;2022-09-23T01:33:19;99627.88;;;4.46;100.00
39197;BME280;42889;51.112;13.772;2022-09-23T01:40:59;99629.59;;;4.35;100.00
39197;BME280;42889;51.112;13.772;2022-09-23T01:52:37;99609.50;;;4.55;100.00
39197;BME280;42889;51.112;13.772;2022-09-23T01:56:04;99621.25;;;4.39;100.00
39197;BME280;42889;51.112;13.772;2022-09-23T02:00:32;99611.03;;;4.46;100.00
39197;BME280;42889;51.112;13.772;2022-09-23T02:09:23;99603.00;;;4.59;100.00
39197;BME280;42889;51.112;13.772;2022-09-23T02:12:52;99602.81;;;4.49;100.00
39197;BME280;42889;51.112;13.772;2022-09-23T02:16:55;99595.78;;;4.48;100.00
39197;BME280;42889;51.112;13.772;2022-09-23T02:29:41;99574.78;;;4.56;100.00
39197;BME280;42889;51.112;13.772;2022-09-23T02:42:04;99580.13;;;4.31;100.00
39197;BME280;42889;51.112;13.772;2022-09-23T02:45:35;99581.09;;;4.30;100.00
39197;BME280;42889;51.112;13.772;2022-09-23T02:49:30;99571.41;;;4.29;100.00
39197;BME280;42889;51.112;13.772;2022-09-23T02:57:06;99574.09;;;4.03;100.00
39197;BME280;42889;51.112;13.772;2022-09-23T03:32:22;99550.97;;;3.91;100.00
39197;BME280;42889;51.112;13.772;2022-09-23T03:44:56;99528.19;;;3.87;100.00
39197;BME280;42889;51.112;13.772;2022-09-23T04:02:17;99526.38;;;3.75;100.00
39197;BME280;42889;51.112;13.772;2022-09-23T04:06:39;99533.69;;;3.84;100.00
39197;BME280;42889;51.112;13.772;2022-09-23T04:11:21;99523.78;;;3.73;100.00
39197;BME280;42889;51.112;13.772;2022-09-23T04:19:56;99506.13;;;3.97;100.00
39197;BME280;42889;51.112;13.772;2022-09-23T04:24:25;99505.19;;;3.86;100.00
39197;BME280;42889;51.112;13.772;2022-09-23T04:28:57;99502.31;;;3.76;100.00
39197;BME280;42889;51.112;13.772;2022-09-23T04:33:11;99505.94;;;3.75;100.00
39197;BME280;42889;51.112;13.772;2022-09-23T04:37:18;99509.88;;;3.69;100.00
39197;BME280;42889;51.112;13.772;2022-09-23T04:49:34;99499.31;;;3.68;100.00
39197;BME280;42889;51.112;13.772;2022-09-23T04:53:37;99498.34;;;3.56;100.00
39197;BME280;42889;51.112;13.772;2022-09-23T05:02:07;99502.94;;;3.67;100.00
39197;BME280;42889;51.112;13.772;2022-09-23T06:24:39;99500.75;;;5.54;100.00
39197;BME280;42889;51.112;13.772;2022-09-23T06:41:10;99508.75;;;6.00;100.00
39197;BME280;42889;51.112;13.772;2022-09-23T06:48:01;99516.78;;;6.34;100.00
39197;BME280;42889;51.112;13.772;2022-09-23T06:51:50;99518.31;;;6.48;100.00
39197;BME280;42889;51.112;13.772;2022-09-23T06:58:20;99516.56;;;6.69;100.00
39197;BME280;42889;51.112;13.772;2022-09-23T07:00:46;99514.31;;;6.80;100.00
39197;BME280;42889;51.112;13.772;2022-09-23T07:03:13;99512.50;;;6.97;100.00
39197;BME280;42889;51.112;13.772;2022-09-23T07:09:05;99518.91;;;7.06;100.00
39197;BME280;42889;51.112;13.772;2022-09-23T07:11:32;99526.38;;;7.23;100.00
39197;BME280;42889;51.112;13.772;2022-09-23T07:14:05;99523.19;;;7.29;100.00
39197;BME280;42889;51.112;13.772;2022-09-23T07:16:32;99524.72;;;7.43;100.00
39197;BME280;42889;51.112;13.772;2022-09-23T07:18:58;99519.16;;;7.56;100.00
39197;BME280;42889;51.112;13.772;2022-09-23T07:21:25;99519.41;;;7.74;100.00
39197;BME280;42889;51.112;13.772;2022-09-23T07:23:53;99522.81;;;7.97;100.00
39197;BME280;42889;51.112;13.772;2022-09-23T07:26:20;99527.56;;;8.14;100.00
39197;BME280;42889;51.112;13.772;2022-09-23T07:28:54;99527.97;;;8.40;100.00
39197;BME280;42889;51.112;13.772;2022-09-23T07:31:22;99524.44;;;8.89;100.00
39197;BME280;42889;51.112;13.772;2022-09-23T07:34:03;99530.53;;;9.59;97.19
39197;BME280;42889;51.112;13.772;2022-09-23T07:36:30;99530.63;;;10.43;92.23
39197;BME280;42889;51.112;13.772;2022-09-23T07:38:59;99528.22;;;11.31;87.46
39197;BME280;42889;51.112;13.772;2022-09-23T07:41:30;99524.94;;;12.25;79.82
39197;BME280;42889;51.112;13.772;2022-09-23T07:43:58;99511.44;;;13.17;74.95
39197;BME280;42889;51.112;13.772;2022-09-23T07:46:28;99517.22;;;14.04;70.44
39197;BME280;42889;51.112;13.772;2022-09-23T07:48:56;99510.22;;;14.26;69.53
39197;BME280;42889;51.112;13.772;2022-09-23T07:51:34;99522.00;;;14.97;65.33
39197;BME280;42889;51.112;13.772;2022-09-23T07:54:04;99528.19;;;15.37;63.71
39197;BME280;42889;51.112;13.772;2022-09-23T07:56:33;99520.75;;;15.53;61.22
39197;BME280;42889;51.112;13.772;2022-09-23T07:59:01;99523.16;;;15.25;61.47
39197;BME280;42889;51.112;13.772;2022-09-23T08:01:38;99525.66;;;15.35;60.41
39197;BME280;42889;51.112;13.772;2022-09-23T08:04:12;99528.16;;;14.83;62.66
39197;BME280;42889;51.112;13.772;2022-09-23T08:06:43;99529.34;;;14.24;64.95
39197;BME280;42889;51.112;13.772;2022-09-23T08:09:11;99534.47;;;13.62;65.48
39197;BME280;42889;51.112;13.772;2022-09-23T08:11:38;99532.50;;;13.06;68.47
39197;BME280;42889;51.112;13.772;2022-09-23T08:14:09;99536.28;;;12.71;70.45
39197;BME280;42889;51.112;13.772;2022-09-23T08:16:35;99533.91;;;12.33;73.11
39197;BME280;42889;51.112;13.772;2022-09-23T08:19:03;99537.38;;;12.18;72.92
39197;BME280;42889;51.112;13.772;2022-09-23T08:21:30;99535.47;;;11.84;75.27
39197;BME280;42889;51.112;13.772;2022-09-23T08:23:57;99534.00;;;12.16;73.66
39197;BME280;42889;51.112;13.772;2022-09-23T08:26:24;99536.69;;;12.16;73.71
39197;BME280;42889;51.112;13.772;2022-09-23T08:28:51;99537.34;;;12.09;75.07
39197;BME280;42889;51.112;13.772;2022-09-23T08:31:22;99533.94;;;12.42;74.15
39197;BME280;42889;51.112;13.772;2022-09-23T08:33:55;99530.19;;;12.69;73.03
39197;BME280;42889;51.112;13.772;2022-09-23T08:36:24;99532.16;;;12.92;71.92
39197;BME280;42889;51.112;13.772;2022-09-23T08:38:51;99523.53;;;12.89;71.08
39197;BME280;42889;51.112;13.772;2022-09-23T08:44:28;99525.56;;;12.95;70.29
39197;BME280;42889;51.112;13.772;2022-09-23T08:52:51;99513.19;;;13.43;70.87
39197;BME280;42889;51.112;13.772;2022-09-23T08:55:47;99507.75;;;14.00;65.79
39197;BME280;42889;51.112;13.772;2022-09-23T09:03:55;99504.16;;;14.71;64.44
39197;BME280;42889;51.112;13.772;2022-09-23T09:06:33;99506.41;;;14.60;62.87
39197;BME280;42889;51.112;13.772;2022-09-23T09:09:22;99499.03;;;14.85;62.31
39197;BME280;42889;51.112;13.772;2022-09-23T09:11:53;99496.06;;;15.25;61.27
39197;BME280;42889;51.112;13.772;2022-09-23T09:14:30;99498.06;;;15.92;57.62
39197;BME280;42889;51.112;13.772;2022-09-23T09:17:06;99489.66;;;16.91;57.78
39197;BME280;42889;51.112;13.772;2022-09-23T09:19:56;99485.03;;;18.61;52.12
39197;BME280;42889;51.112;13.772;2022-09-23T09:22:56;99493.16;;;19.63;48.96
39197;BME280;42889;51.112;13.772;2022-09-23T09:25:43;99483.50;;;19.87;44.37
39197;BME280;42889;51.112;13.772;2022-09-23T09:30:56;99488.28;;;21.98;39.77
39197;BME280;42889;51.112;13.772;2022-09-23T09:33:33;99487.53;;;21.59;38.71
39197;BME280;42889;51.112;13.772;2022-09-23T09:38:35;99480.78;;;21.30;38.80
39197;BME280;42889;51.112;13.772;2022-09-23T09:41:15;99486.38;;;21.98;42.00
39197;BME280;42889;51.112;13.772;2022-09-23T09:43:45;99479.78;;;22.68;38.92
39197;BME280;42889;51.112;13.772;2022-09-23T09:49:24;99475.13;;;23.77;34.90
39197;BME280;42889;51.112;13.772;2022-09-23T09:52:25;99471.47;;;24.41;35.06
39197;BME280;42889;51.112;13.772;2022-09-23T09:55:23;99471.03;;;23.67;29.46
39197;BME280;42889;51.112;13.772;2022-09-23T10:02:56;99455.81;;;24.30;35.92
39197;BME280;42889;51.112;13.772;2022-09-23T10:05:47;99454.97;;;24.93;31.19
39197;BME280;42889;51.112;13.772;2022-09-23T10:08:35;99452.56;;;23.63;31.81
39197;BME280;42889;51.112;13.772;2022-09-23T10:11:09;99452.28;;;24.70;33.58
39197;BME280;42889;51.112;13.772;2022-09-23T10:13:58;99452.09;;;25.29;26.53
39197;BME280;42889;51.112;13.772;2022-09-23T10:16:29;99446.16;;;24.80;27.07
39197;BME280;42889;51.112;13.772;2022-09-23T10:18:59;99445.28;;;24.91;29.43
39197;BME280;42889;51.112;13.772;2022-09-23T10:21:35;99448.97;;;24.33;28.90
39197;BME280;42889;51.112;13.772;2022-09-23T10:24:05;99438.63;;;24.75;27.98
39197;BME280;42889;51.112;13.772;2022-09-23T10:26:51;99444.91;;;24.47;27.06
39197;BME280;42889;51.112;13.772;2022-09-23T10:35:11;99432.72;;;25.23;25.65
39197;BME280;42889;51.112;13.772;2022-09-23T10:37:49;99431.47;;;25.31;28.45
39197;BME280;42889;51.112;13.772;2022-09-23T10:40:37;99433.50;;;26.20;24.73
39197;BME280;42889;51.112;13.772;2022-09-23T10:50:10;99426.13;;;25.25;30.76
39197;BME280;42889;51.112;13.772;2022-09-23T10:52:43;99420.81;;;25.35;27.62
39197;BME280;42889;51.112;13.772;2022-09-23T10:57:55;99413.75;;;24.70;30.22
39197;BME280;42889;51.112;13.772;2022-09-23T11:06:25;99409.88;;;24.83;27.80
39197;BME280;42889;51.112;13.772;2022-09-23T11:17:48;99392.53;;;25.39;29.22
39197;BME280;42889;51.112;13.772;2022-09-23T11:36:34;99383.41;;;26.28;26.58
39197;BME280;42889;51.112;13.772;2022-09-23T11:41:44;99376.63;;;25.13;29.50
39197;BME280;42889;51.112;13.772;2022-09-23T11:44:16;99371.25;;;24.78;29.83
39197;BME280;42889;51.112;13.772;2022-09-23T11:46:50;99373.88;;;23.50;32.39
39197;BME280;42889;51.112;13.772;2022-09-23T11:49:33;99373.13;;;22.59;34.60
39197;BME280;42889;51.112;13.772;2022-09-23T11:52:28;99369.94;;;22.44;30.41
39197;BME280;42889;51.112;13.772;2022-09-23T11:55:06;99362.00;;;22.54;30.14
39197;BME280;42889;51.112;13.772;2022-09-23T11:57:52;99356.41;;;23.09;31.66
39197;BME280;42889;51.112;13.772;2022-09-23T12:00:24;99353.03;;;23.96;28.91
39197;BME280;42889;51.112;13.772;2022-09-23T12:03:08;99346.91;;;23.47;33.56
39197;BME280;42889;51.112;13.772;2022-09-23T12:05:44;99347.34;;;24.38;29.43
39197;BME280;42889;51.112;13.772;2022-09-23T12:08:33;99344.63;;;24.14;29.25
39197;BME280;42889;51.112;13.772;2022-09-23T12:13:55;99342.09;;;24.36;29.64
39197;BME280;42889;51.112;13.772;2022-09-23T12:19:38;99326.09;;;24.10;28.74
39197;BME280;42889;51.112;13.772;2022-09-23T12:24:55;99335.09;;;22.93;30.57
39197;BME280;42889;51.112;13.772;2022-09-23T12:27:38;99336.78;;;22.94;30.52
39197;BME280;42889;51.112;13.772;2022-09-23T12:30:25;99336.97;;;22.62;29.60
39197;BME280;42889;51.112;13.772;2022-09-23T12:33:19;99330.69;;;22.74;31.45
39197;BME280;42889;51.112;13.772;2022-09-23T12:35:54;99324.50;;;21.56;33.49
39197;BME280;42889;51.112;13.772;2022-09-23T12:38:39;99317.81;;;21.27;34.81
39197;BME280;42889;51.112;13.772;2022-09-23T12:46:38;99319.72;;;19.08;37.40
39197;BME280;42889;51.112;13.772;2022-09-23T12:54:47;99314.63;;;20.29;37.33
39197;BME280;42889;51.112;13.772;2022-09-23T13:02:42;99306.91;;;21.46;33.87
39197;BME280;42889;51.112;13.772;2022-09-23T13:05:52;99306.81;;;20.77;33.83
39197;BME280;42889;51.112;13.772;2022-09-23T13:08:43;99300.91;;;19.97;37.56
39197;BME280;42889;51.112;13.772;2022-09-23T13:11:19;99294.63;;;20.35;34.87
39197;BME280;42889;51.112;13.772;2022-09-23T13:13:48;99295.16;;;20.57;35.02
39197;BME280;42889;51.112;13.772;2022-09-23T13:19:40;99282.50;;;21.44;33.11
39197;BME280;42889;51.112;13.772;2022-09-23T13:22:08;99275.75;;;20.97;36.25
39197;BME280;42889;51.112;13.772;2022-09-23T13:24:45;99282.84;;;21.29;35.95
39197;BME280;42889;51.112;13.772;2022-09-23T13:27:19;99280.00;;;22.34;34.33
39197;BME280;42889;51.112;13.772;2022-09-23T13:30:17;99274.31;;;22.18;31.51
39197;BME280;42889;51.112;13.772;2022-09-23T13:35:55;99256.84;;;23.73;31.29
39197;BME280;42889;51.112;13.772;2022-09-23T13:38:27;99263.44;;;23.25;31.55
39197;BME280;42889;51.112;13.772;2022-09-23T13:41:03;99271.41;;;22.31;32.17
39197;BME280;42889;51.112;13.772;2022-09-23T13:43:39;99262.66;;;20.74;35.45
39197;BME280;42889;51.112;13.772;2022-09-23T13:46:10;99261.22;;;19.95;36.39
39197;BME280;42889;51.112;13.772;2022-09-23T13:48:39;99258.19;;;19.45;37.93
39197;BME280;42889;51.112;13.772;2022-09-23T13:51:10;99254.41;;;19.39;37.46
39197;BME280;42889;51.112;13.772;2022-09-23T13:53:37;99250.22;;;19.30;38.81
39197;BME280;42889;51.112;13.772;2022-09-23T13:56:11;99248.97;;;19.06;40.99
39197;BME280;42889;51.112;13.772;2022-09-23T13:58:38;99247.31;;;18.99;36.73
39197;BME280;42889;51.112;13.772;2022-09-23T14:01:20;99244.16;;;18.95;37.50
39197;BME280;42889;51.112;13.772;2022-09-23T14:03:47;99248.56;;;18.83;38.18
39197;BME280;42889;51.112;13.772;2022-09-23T14:06:14;99243.88;;;18.43;40.28
39197;BME280;42889;51.112;13.772;2022-09-23T14:08:45;99238.88;;;18.60;41.89
39197;BME280;42889;51.112;13.772;2022-09-23T14:11:17;99241.56;;;18.34;40.67
39197;BME280;42889;51.112;13.772;2022-09-23T14:13:46;99240.88;;;18.05;44.82
39197;BME280;42889;51.112;13.772;2022-09-23T14:16:14;99237.16;;;18.33;40.19
39197;BME280;42889;51.112;13.772;2022-09-23T14:18:47;99235.66;;;18.17;43.22
39197;BME280;42889;51.112;13.772;2022-09-23T14:26:38;99221.63;;;18.20;39.47
39197;BME280;42889;51.112;13.772;2022-09-23T14:29:12;99218.25;;;18.05;40.95
39197;BME280;42889;51.112;13.772;2022-09-23T14:31:39;99210.41;;;17.82;40.12
39197;BME280;42889;51.112;13.772;2022-09-23T14:34:37;99213.03;;;17.69;40.81
39197;BME280;42889;51.112;13.772;2022-09-23T14:40:31;99204.28;;;17.25;44.10
39197;BME280;42889;51.112;13.772;2022-09-23T14:45:36;99207.88;;;17.39;42.54
39197;BME280;42889;51.112;13.772;2022-09-23T14:48:04;99200.41;;;17.13;44.19
39197;BME280;42889;51.112;13.772;2022-09-23T14:50:32;99197.94;;;16.90;43.86
39197;BME280;42889;51.112;13.772;2022-09-23T14:58:49;99196.88;;;16.63;46.71
39197;BME280;42889;51.112;13.772;2022-09-23T15:01:32;99200.88;;;16.67;48.64
39197;BME280;42889;51.112;13.772;2022-09-23T15:06:39;99197.28;;;16.60;50.49
39197;BME280;42889;51.112;13.772;2022-09-23T15:09:10;99188.69;;;16.56;47.41
39197;BME280;42889;51.112;13.772;2022-09-23T15:11:42;99187.53;;;16.44;49.41
39197;BME280;42889;51.112;13.772;2022-09-23T15:14:09;99178.38;;;16.52;48.37
39197;BME280;42889;51.112;13.772;2022-09-23T15:16:56;99178.56;;;16.22;45.13
39197;BME280;42889;51.112;13.772;2022-09-23T15:19:23;99176.16;;;16.34;45.71
39197;BME280;42889;51.112;13.772;2022-09-23T15:21:51;99177.88;;;16.42;45.83
39197;BME280;42889;51.112;13.772;2022-09-23T15:24:37;99180.59;;;16.20;49.27
39197;BME280;42889;51.112;13.772;2022-09-23T15:27:21;99183.19;;;16.28;51.92
39197;BME280;42889;51.112;13.772;2022-09-23T15:29:51;99181.19;;;16.86;46.28
39197;BME280;42889;51.112;13.772;2022-09-23T15:32:19;99190.22;;;17.22;44.81
39197;BME280;42889;51.112;13.772;2022-09-23T15:34:49;99188.25;;;17.44;43.83
39197;BME280;42889;51.112;13.772;2022-09-23T15:37:16;99183.91;;;17.56;45.37
39197;BME280;42889;51.112;13.772;2022-09-23T15:39:43;99185.72;;;17.42;43.89
39197;BME280;42889;51.112;13.772;2022-09-23T15:42:10;99177.00;;;17.53;45.47
39197;BME280;42889;51.112;13.772;2022-09-23T15:44:37;99181.75;;;17.03;48.06
39197;BME280;42889;51.112;13.772;2022-09-23T15:47:03;99184.44;;;16.75;49.06
39197;BME280;42889;51.112;13.772;2022-09-23T15:49:33;99174.28;;;16.34;53.51
39197;BME280;42889;51.112;13.772;2022-09-23T15:52:03;99177.44;;;15.95;56.02
39197;BME280;42889;51.112;13.772;2022-09-23T15:54:30;99175.91;;;15.57;58.87
39197;BME280;42889;51.112;13.772;2022-09-23T15:57:00;99176.22;;;15.32;59.49
39197;BME280;42889;51.112;13.772;2022-09-23T15:59:27;99169.59;;;14.90;62.36
39197;BME280;42889;51.112;13.772;2022-09-23T16:01:57;99169.97;;;14.72;61.87
39197;BME280;42889;51.112;13.772;2022-09-23T16:04:28;99173.19;;;14.30;65.43
39197;BME280;42889;51.112;13.772;2022-09-23T16:06:56;99165.41;;;14.12;64.85
39197;BME280;42889;51.112;13.772;2022-09-23T16:09:24;99170.31;;;14.09;67.15
39197;BME280;42889;51.112;13.772;2022-09-23T16:11:52;99164.91;;;13.86;69.72
39197;BME280;42889;51.112;13.772;2022-09-23T16:14:19;99161.78;;;13.74;69.28
39197;BME280;42889;51.112;13.772;2022-09-23T16:16:45;99164.25;;;13.53;72.80
39197;BME280;42889;51.112;13.772;2022-09-23T16:19:14;99162.41;;;13.45;72.59
39197;BME280;42889;51.112;13.772;2022-09-23T16:21:41;99156.88;;;13.38;71.13
39197;BME280;42889;51.112;13.772;2022-09-23T16:24:14;99152.00;;;13.34;72.02
39197;BME280;42889;51.112;13.772;2022-09-23T16:26:43;99159.31;;;13.25;70.75
39197;BME280;42889;51.112;13.772;2022-09-23T16:29:11;99155.41;;;13.28;71.41
39197;BME280;42889;51.112;13.772;2022-09-23T16:31:37;99155.97;;;13.07;75.72
39197;BME280;42889;51.112;13.772;2022-09-23T16:34:04;99166.16;;;12.97;75.16
39197;BME280;42889;51.112;13.772;2022-09-23T16:36:34;99164.75;;;13.01;76.72
39197;BME280;42889;51.112;13.772;2022-09-23T16:39:03;99161.41;;;12.90;75.68
39197;BME280;42889;51.112;13.772;2022-09-23T16:41:31;99160.06;;;12.95;72.48
39197;BME280;42889;51.112;13.772;2022-09-23T16:43:59;99154.25;;;12.58;78.68
39197;BME280;42889;51.112;13.772;2022-09-23T16:46:26;99153.09;;;12.53;78.28
39197;BME280;42889;51.112;13.772;2022-09-23T16:48:54;99154.59;;;12.23;79.57
39197;BME280;42889;51.112;13.772;2022-09-23T16:51:25;99157.47;;;12.21;80.95
39197;BME280;42889;51.112;13.772;2022-09-23T16:53:53;99155.97;;;12.27;80.97
39197;BME280;42889;51.112;13.772;2022-09-23T16:56:24;99156.47;;;12.06;82.56
39197;BME280;42889;51.112;13.772;2022-09-23T16:58:55;99154.63;;;11.98;83.27
39197;BME280;42889;51.112;13.772;2022-09-23T17:01:24;99143.81;;;11.82;84.92
39197;BME280;42889;51.112;13.772;2022-09-23T17:04:09;99151.34;;;11.70;84.12
39197;BME280;42889;51.112;13.772;2022-09-23T17:06:50;99145.06;;;11.53;85.63
39197;BME280;42889;51.112;13.772;2022-09-23T17:09:18;99148.25;;;11.49;88.04
39197;BME280;42889;51.112;13.772;2022-09-23T17:11:50;99147.44;;;11.48;87.49
39197;BME280;42889;51.112;13.772;2022-09-23T17:14:18;99147.75;;;11.45;86.76
39197;BME280;42889;51.112;13.772;2022-09-23T17:16:44;99151.06;;;11.31;88.98
39197;BME280;42889;51.112;13.772;2022-09-23T17:19:11;99150.22;;;11.30;88.58
39197;BME280;42889;51.112;13.772;2022-09-23T17:21:38;99152.06;;;11.30;88.92
39197;BME280;42889;51.112;13.772;2022-09-23T17:24:05;99139.25;;;11.24;89.52
39197;BME280;42889;51.112;13.772;2022-09-23T17:26:31;99152.75;;;11.32;89.78
39197;BME280;42889;51.112;13.772;2022-09-23T17:28:58;99142.59;;;11.18;89.10
39197;BME280;42889;51.112;13.772;2022-09-23T17:31:27;99142.25;;;11.13;89.95
39197;BME280;42889;51.112;13.772;2022-09-23T17:33:54;99142.06;;;11.06;89.23
39197;BME280;42889;51.112;13.772;2022-09-23T17:36:20;99137.78;;;10.95;92.14
39197;BME280;42889;51.112;13.772;2022-09-23T17:38:48;99139.94;;;10.92;92.31
39197;BME280;42889;51.112;13.772;2022-09-23T17:41:19;99142.44;;;10.85;91.54
39197;BME280;42889;51.112;13.772;2022-09-23T17:43:46;99146.50;;;10.89;90.35
39197;BME280;42889;51.112;13.772;2022-09-23T17:46:13;99136.91;;;10.87;89.68
39197;BME280;42889;51.112;13.772;2022-09-23T17:48:43;99143.75;;;10.81;92.69
39197;BME280;42889;51.112;13.772;2022-09-23T17:51:16;99139.56;;;10.78;92.53
39197;BME280;42889;51.112;13.772;2022-09-23T17:53:46;99137.50;;;10.72;91.62
39197;BME280;42889;51.112;13.772;2022-09-23T17:56:17;99143.75;;;10.73;93.16
39197;BME280;42889;51.112;13.772;2022-09-23T17:58:45;99144.50;;;10.65;91.98
39197;BME280;42889;51.112;13.772;2022-09-23T18:03:43;99138.53;;;10.45;93.15
39197;BME280;42889;51.112;13.772;2022-09-23T18:08:37;99141.38;;;10.44;94.45
39197;BME280;42889;51.112;13.772;2022-09-23T18:13:37;99144.00;;;10.36;93.67
39197;BME280;42889;51.112;13.772;2022-09-23T18:16:04;99141.09;;;10.29;95.24
39197;BME280;42889;51.112;13.772;2022-09-23T18:18:31;99140.72;;;10.24;95.30
39197;BME280;42889;51.112;13.772;2022-09-23T18:21:01;99145.31;;;10.32;93.50
39197;BME280;42889;51.112;13.772;2022-09-23T18:23:28;99151.31;;;10.08;95.47
39197;BME280;42889;51.112;13.772;2022-09-23T18:25:55;99140.66;;;9.98;96.17
39197;BME280;42889;51.112;13.772;2022-09-23T18:28:22;99139.81;;;9.97;97.04
39197;BME280;42889;51.112;13.772;2022-09-23T18:30:56;99137.66;;;10.01;96.89
39197;BME280;42889;51.112;13.772;2022-09-23T18:33:23;99148.41;;;9.83;97.92
39197;BME280;42889;51.112;13.772;2022-09-23T18:35:50;99145.88;;;9.82;99.42
39197;BME280;42889;51.112;13.772;2022-09-23T18:38:20;99145.03;;;9.81;98.47
39197;BME280;42889;51.112;13.772;2022-09-23T18:40:54;99139.34;;;9.84;98.43
39197;BME280;42889;51.112;13.772;2022-09-23T18:43:27;99140.19;;;9.85;99.22
39197;BME280;42889;51.112;13.772;2022-09-23T18:46:13;99140.59;;;9.90;96.88
39197;BME280;42889;51.112;13.772;2022-09-23T18:48:40;99148.34;;;9.75;96.67
39197;BME280;42889;51.112;13.772;2022-09-23T18:51:28;99144.41;;;9.69;97.65
39197;BME280;42889;51.112;13.772;2022-09-23T18:53:55;99149.22;;;9.48;98.31
39197;BME280;42889;51.112;13.772;2022-09-23T18:56:30;99145.94;;;9.54;99.01
39197;BME280;42889;51.112;13.772;2022-09-23T18:58:59;99148.16;;;9.59;98.07
39197;BME280;42889;51.112;13.772;2022-09-23T19:01:26;99143.09;;;9.56;97.12
39197;BME280;42889;51.112;13.772;2022-09-23T19:03:54;99139.34;;;9.48;99.88
39197;BME280;42889;51.112;13.772;2022-09-23T19:06:22;99144.69;;;9.48;100.00
39197;BME280;42889;51.112;13.772;2022-09-23T19:08:53;99146.59;;;9.38;99.43
39197;BME280;42889;51.112;13.772;2022-09-23T19:11:21;99141.22;;;9.38;98.59
39197;BME280;42889;51.112;13.772;2022-09-23T19:13:57;99151.19;;;9.28;100.00
39197;BME280;42889;51.112;13.772;2022-09-23T19:16:25;99141.75;;;9.24;99.90
39197;BME280;42889;51.112;13.772;2022-09-23T19:18:52;99143.22;;;9.18;99.66
39197;BME280;42889;51.112;13.772;2022-09-23T19:21:21;99141.44;;;9.27;97.49
39197;BME280;42889;51.112;13.772;2022-09-23T19:23:50;99143.59;;;9.23;98.28
39197;BME280;42889;51.112;13.772;2022-09-23T19:26:21;99145.06;;;9.18;98.04
39197;BME280;42889;51.112;13.772;2022-09-23T19:28:49;99142.94;;;9.12;97.61
39197;BME280;42889;51.112;13.772;2022-09-23T19:31:19;99142.28;;;9.00;98.06
39197;BME280;42889;51.112;13.772;2022-09-23T19:33:54;99145.50;;;9.13;97.11
39197;BME280;42889;51.112;13.772;2022-09-23T19:36:29;99145.53;;;9.04;97.34
39197;BME280;42889;51.112;13.772;2022-09-23T19:39:02;99154.16;;;9.07;98.21
39197;BME280;42889;51.112;13.772;2022-09-23T19:41:30;99142.75;;;8.95;99.95
39197;BME280;42889;51.112;13.772;2022-09-23T19:44:01;99142.50;;;8.89;100.00
39197;BME280;42889;51.112;13.772;2022-09-23T19:46:29;99145.06;;;8.90;100.00
39197;BME280;42889;51.112;13.772;2022-09-23T19:48:57;99140.66;;;8.89;100.00
39197;BME280;42889;51.112;13.772;2022-09-23T19:51:25;99137.88;;;8.81;100.00
39197;BME280;42889;51.112;13.772;2022-09-23T19:53:52;99130.41;;;8.75;100.00
39197;BME280;42889;51.112;13.772;2022-09-23T19:56:18;99137.06;;;8.71;99.76
39197;BME280;42889;51.112;13.772;2022-09-23T19:58:47;99138.09;;;8.60;100.00
39197;BME280;42889;51.112;13.772;2022-09-23T20:01:17;99140.63;;;8.62;100.00
39197;BME280;42889;51.112;13.772;2022-09-23T20:03:45;99139.94;;;8.50;99.76
39197;BME280;42889;51.112;13.772;2022-09-23T20:06:13;99140.50;;;8.54;99.12
39197;BME280;42889;51.112;13.772;2022-09-23T20:08:40;99130.47;;;8.56;100.00
39197;BME280;42889;51.112;13.772;2022-09-23T20:11:11;99127.13;;;8.44;100.00